createdAt,value
2023-04-16T00:02:28.230Z,97302.63
2023-04-16T00:05:15.153Z,97303.69
2023-04-16T00:08:02.532Z,97305.81
2023-04-16T00:10:49.528Z,97311.41
2023-04-16T00:13:36.651Z,97304.22
2023-04-16T00:16:23.656Z,97303.34
2023-04-16T00:19:10.776Z,97307.88
2023-04-16T00:21:57.808Z,97313.34
2023-04-16T00:24:44.732Z,97311.13
2023-04-16T00:27:31.684Z,97314.66
2023-04-16T00:30:18.742Z,97315.22
2023-04-16T00:33:05.723Z,97313.28
2023-04-16T00:35:52.631Z,97317.25
2023-04-16T00:38:39.568Z,97313.72
2023-04-16T00:41:26.847Z,97316.44
2023-04-16T00:44:13.787Z,97315.94
2023-04-16T00:47:01.270Z,97312.88
2023-04-16T00:49:48.617Z,97316.13
2023-04-16T00:52:35.692Z,97320.22
2023-04-16T00:55:22.752Z,97314.06
2023-04-16T00:58:09.696Z,97317.16
2023-04-16T01:00:56.819Z,97325.13
2023-04-16T01:03:46.682Z,97321.75
2023-04-16T01:06:33.710Z,97321.03
2023-04-16T01:09:20.850Z,97320.94
2023-04-16T01:12:07.760Z,97315.94
2023-04-16T01:14:54.716Z,97312.94
2023-04-16T01:17:41.671Z,97317.09
2023-04-16T01:20:28.588Z,97310.44
2023-04-16T01:23:16.100Z,97316.06
2023-04-16T01:26:03.157Z,97317.84
2023-04-16T01:28:50.193Z,97320.88
2023-04-16T01:31:37.225Z,97322.00
2023-04-16T01:34:24.261Z,97317.50
2023-04-16T01:37:11.252Z,97322.19
2023-04-16T01:39:58.240Z,97325.63
2023-04-16T01:42:45.392Z,97321.16
2023-04-16T01:45:33.485Z,97331.59
2023-04-16T01:48:20.516Z,97329.94
2023-04-16T01:51:07.552Z,97329.81
2023-04-16T01:53:55.257Z,97322.34
2023-04-16T01:56:42.227Z,97331.06
2023-04-16T01:59:29.081Z,97331.78
2023-04-16T02:02:16.620Z,97333.75
2023-04-16T02:05:03.936Z,97336.28
2023-04-16T02:07:51.015Z,97331.44
2023-04-16T02:10:37.937Z,97331.91
2023-04-16T02:13:26.195Z,97330.94
2023-04-16T02:16:13.273Z,97335.81
2023-04-16T02:19:00.240Z,97332.38
2023-04-16T02:21:47.596Z,97325.91
2023-04-16T02:24:34.500Z,97340.97
2023-04-16T02:27:21.422Z,97339.19
2023-04-16T02:30:09.286Z,97332.13
2023-04-16T02:32:56.247Z,97339.72
2023-04-16T02:35:43.288Z,97350.56
2023-04-16T02:38:30.207Z,97345.78
2023-04-16T02:41:17.402Z,97354.72
2023-04-16T02:44:04.430Z,97357.09
2023-04-16T02:46:51.356Z,97362.72
2023-04-16T02:49:38.275Z,97362.41
2023-04-16T02:52:25.357Z,97358.38
2023-04-16T02:55:12.289Z,97361.69
2023-04-16T02:57:59.199Z,97357.03
2023-04-16T03:00:46.284Z,97360.78
2023-04-16T03:03:33.332Z,97360.03
2023-04-16T03:06:20.477Z,97366.50
2023-04-16T03:11:54.384Z,97368.59
2023-04-16T03:14:41.325Z,97374.94
2023-04-16T03:17:28.236Z,97373.75
2023-04-16T03:20:17.098Z,97390.03
2023-04-16T03:23:04.046Z,97379.91
2023-04-16T03:25:51.142Z,97378.66
2023-04-16T03:28:38.020Z,97372.59
2023-04-16T03:31:25.138Z,97377.34
2023-04-16T03:34:12.089Z,97378.28
2023-04-16T03:36:59.024Z,97379.72
2023-04-16T03:39:46.057Z,97388.19
2023-04-16T03:42:33.050Z,97395.44
2023-04-16T03:45:19.974Z,97401.06
2023-04-16T03:48:07.072Z,97397.22
2023-04-16T03:50:53.935Z,97392.88
2023-04-16T03:53:40.847Z,97399.16
2023-04-16T03:56:27.814Z,97401.34
2023-04-16T03:59:14.792Z,97403.84
2023-04-16T04:02:01.819Z,97404.38
2023-04-16T04:04:48.872Z,97415.13
2023-04-16T04:07:35.900Z,97416.31
2023-04-16T04:10:22.963Z,97410.78
2023-04-16T04:13:09.877Z,97404.03
2023-04-16T04:15:56.979Z,97408.41
2023-04-16T04:18:44.543Z,97419.97
2023-04-16T04:21:31.986Z,97421.63
2023-04-16T04:24:18.839Z,97424.53
2023-04-16T04:27:05.840Z,97429.22
2023-04-16T04:29:53.450Z,97436.09
2023-04-16T04:32:40.569Z,97438.81
2023-04-16T04:35:27.525Z,97438.81
2023-04-16T04:38:16.112Z,97447.16
2023-04-16T04:41:03.253Z,97441.91
2023-04-16T04:43:50.334Z,97443.19
2023-04-16T04:46:37.339Z,97444.75
2023-04-16T04:49:24.265Z,97449.47
2023-04-16T04:52:11.860Z,97455.28
2023-04-16T04:54:58.878Z,97460.78
2023-04-16T04:57:45.860Z,97460.25
2023-04-16T05:00:33.496Z,97462.22
2023-04-16T05:03:22.063Z,97478.88
2023-04-16T05:06:09.099Z,97469.84
2023-04-16T05:08:56.002Z,97474.53
2023-04-16T05:11:43.270Z,97474.72
2023-04-16T05:14:30.302Z,97472.22
2023-04-16T05:17:17.331Z,97475.44
2023-04-16T05:20:04.639Z,97478.81
2023-04-16T05:22:51.820Z,97474.97
2023-04-16T05:25:38.741Z,97488.75
2023-04-16T05:28:25.667Z,97485.47
2023-04-16T05:31:12.607Z,97491.06
2023-04-16T05:33:59.537Z,97499.59
2023-04-16T05:36:46.420Z,97504.19
2023-04-16T05:39:33.321Z,97502.19
2023-04-16T05:42:20.241Z,97505.41
2023-04-16T05:45:07.934Z,97505.25
2023-04-16T05:47:54.985Z,97514.91
2023-04-16T05:50:42.165Z,97513.84
2023-04-16T05:53:29.021Z,97519.66
2023-04-16T05:56:16.165Z,97521.94
2023-04-16T05:59:03.072Z,97520.34
2023-04-16T06:01:50.008Z,97522.06
2023-04-16T06:04:37.273Z,97527.69
2023-04-16T06:07:24.276Z,97527.16
2023-04-16T06:10:11.283Z,97539.25
2023-04-16T06:12:58.157Z,97545.09
2023-04-16T06:15:45.115Z,97546.03
2023-04-16T06:18:32.056Z,97545.47
2023-04-16T06:21:19.142Z,97548.59
2023-04-16T06:24:06.375Z,97556.53
2023-04-16T06:26:54.338Z,97553.69
2023-04-16T06:29:41.966Z,97557.28
2023-04-16T06:32:29.027Z,97554.75
2023-04-16T06:35:16.203Z,97557.34
2023-04-16T06:38:03.059Z,97557.88
2023-04-16T06:40:50.053Z,97556.22
2023-04-16T06:43:36.957Z,97558.41
2023-04-16T06:46:24.117Z,97558.06
2023-04-16T06:49:11.296Z,97554.31
2023-04-16T06:51:58.485Z,97555.56
2023-04-16T06:54:45.384Z,97553.44
2023-04-16T06:57:32.288Z,97561.38
2023-04-16T07:00:19.271Z,97561.84
2023-04-16T07:03:06.443Z,97561.75
2023-04-16T07:05:53.422Z,97560.06
2023-04-16T07:08:40.336Z,97557.47
2023-04-16T07:11:27.427Z,97554.91
2023-04-16T07:14:14.957Z,97563.63
2023-04-16T07:17:01.971Z,97561.84
2023-04-16T07:19:48.916Z,97568.31
2023-04-16T07:22:35.912Z,97569.97
2023-04-16T07:25:23.067Z,97566.53
2023-04-16T07:28:09.974Z,97569.03
2023-04-16T07:30:57.048Z,97569.34
2023-04-16T07:33:43.962Z,97566.31
2023-04-16T07:36:31.921Z,97568.34
2023-04-16T07:39:18.780Z,97569.53
2023-04-16T07:42:06.466Z,97568.09
2023-04-16T07:44:53.574Z,97572.13
2023-04-16T07:47:40.662Z,97570.00
2023-04-16T07:50:28.087Z,97568.53
2023-04-16T07:53:14.984Z,97577.00
2023-04-16T07:56:01.897Z,97581.59
2023-04-16T07:58:48.764Z,97577.53
2023-04-16T08:01:35.701Z,97585.34
2023-04-16T08:04:26.552Z,97579.78
2023-04-16T08:07:13.531Z,97576.16
2023-04-16T08:10:00.436Z,97594.34
2023-04-16T08:12:47.296Z,97583.56
2023-04-16T08:15:35.405Z,97594.69
2023-04-16T08:18:22.457Z,97598.78
2023-04-16T08:21:09.431Z,97594.28
2023-04-16T08:23:56.340Z,97592.47
2023-04-16T08:26:43.200Z,97600.97
2023-04-16T08:29:30.126Z,97608.03
2023-04-16T08:32:17.190Z,97606.25
2023-04-16T08:35:04.486Z,97609.22
2023-04-16T08:37:51.409Z,97607.94
2023-04-16T08:40:40.095Z,97623.94
2023-04-16T08:43:27.894Z,97619.06
2023-04-16T08:46:17.707Z,97625.78
2023-04-16T08:49:07.343Z,97622.00
2023-04-16T08:51:55.942Z,97629.81
2023-04-16T08:55:00.616Z,97632.44
2023-04-16T08:57:54.457Z,97631.47
2023-04-16T09:00:42.092Z,97643.47
2023-04-16T09:03:33.212Z,97647.97
2023-04-16T09:06:22.220Z,97649.78
2023-04-16T09:09:12.692Z,97654.06
2023-04-16T09:12:00.006Z,97659.94
2023-04-16T09:14:52.936Z,97660.66
2023-04-16T09:17:39.946Z,97656.53
2023-04-16T09:20:26.897Z,97664.38
2023-04-16T09:23:14.017Z,97663.50
2023-04-16T09:26:00.942Z,97662.00
2023-04-16T09:28:48.971Z,97660.00
2023-04-16T09:31:35.933Z,97657.16
2023-04-16T09:34:22.864Z,97662.22
2023-04-16T09:37:19.400Z,97668.56
2023-04-16T09:40:07.392Z,97666.38
2023-04-16T09:42:57.524Z,97671.09
2023-04-16T09:45:52.882Z,97673.44
2023-04-16T09:48:39.818Z,97670.69
2023-04-16T09:51:36.486Z,97676.16
2023-04-16T09:54:23.301Z,97674.50
2023-04-16T09:57:10.661Z,97676.28
2023-04-16T10:00:10.426Z,97690.22
2023-04-16T10:03:07.574Z,97687.50
2023-04-16T10:05:54.772Z,97685.34
2023-04-16T10:08:49.653Z,97692.59
2023-04-16T10:11:37.711Z,97695.16
2023-04-16T10:14:24.632Z,97689.88
2023-04-16T10:17:11.680Z,97700.25
2023-04-16T10:19:59.075Z,97697.47
2023-04-16T10:22:46.250Z,97696.59
2023-04-16T10:25:33.278Z,97704.81
2023-04-16T10:28:20.671Z,97701.81
2023-04-16T10:31:09.421Z,97713.28
2023-04-16T10:33:57.871Z,97700.66
2023-04-16T10:36:48.863Z,97705.75
2023-04-16T10:39:39.122Z,97713.94
2023-04-16T10:42:27.553Z,97707.78
2023-04-16T10:45:14.799Z,97711.94
2023-04-16T10:48:06.251Z,97708.53
2023-04-16T10:51:00.106Z,97706.28
2023-04-16T10:53:47.977Z,97711.41
2023-04-16T10:56:36.417Z,97703.44
2023-04-16T10:59:24.579Z,97698.75
2023-04-16T11:02:16.574Z,97711.22
2023-04-16T11:05:04.000Z,97706.38
2023-04-16T11:07:50.887Z,97709.25
2023-04-16T11:10:39.652Z,97712.19
2023-04-16T11:13:26.679Z,97717.84
2023-04-16T11:16:15.639Z,97703.84
2023-04-16T11:19:02.711Z,97709.16
2023-04-16T11:21:51.028Z,97710.44
2023-04-16T11:24:40.423Z,97710.84
2023-04-16T11:27:27.352Z,97715.91
2023-04-16T11:30:14.547Z,97715.38
2023-04-16T11:33:19.721Z,97714.47
2023-04-16T11:36:06.922Z,97711.22
2023-04-16T11:39:02.538Z,97714.66
2023-04-16T11:41:52.328Z,97713.22
2023-04-16T11:44:39.274Z,97713.06
2023-04-16T11:47:27.177Z,97712.13
2023-04-16T11:50:25.726Z,97712.50
2023-04-16T11:53:16.183Z,97716.00
2023-04-16T11:56:04.768Z,97715.63
2023-04-16T11:59:22.896Z,97714.75
2023-04-16T12:02:10.082Z,97718.56
2023-04-16T12:04:57.115Z,97716.19
2023-04-16T12:07:46.218Z,97710.19
2023-04-16T12:10:35.174Z,97709.47
2023-04-16T12:13:22.783Z,97706.53
2023-04-16T12:16:20.950Z,97712.91
2023-04-16T12:19:12.489Z,97706.53
2023-04-16T12:22:00.970Z,97712.72
2023-04-16T12:24:47.835Z,97717.81
2023-04-16T12:27:51.488Z,97716.91
2023-04-16T12:30:51.379Z,97720.00
2023-04-16T12:33:38.365Z,97724.56
2023-04-16T12:36:26.251Z,97718.91
2023-04-16T12:39:15.009Z,97715.66
2023-04-16T12:42:02.710Z,97715.63
2023-04-16T12:44:50.119Z,97717.09
2023-04-16T12:47:37.112Z,97718.38
2023-04-16T12:50:24.104Z,97721.63
2023-04-16T12:53:11.814Z,97727.09
2023-04-16T12:55:59.441Z,97730.00
2023-04-16T12:58:46.407Z,97722.19
2023-04-16T13:01:36.145Z,97720.19
2023-04-16T13:04:25.674Z,97724.56
2023-04-16T13:07:12.884Z,97729.66
2023-04-16T13:10:00.949Z,97722.91
2023-04-16T13:12:48.203Z,97720.34
2023-04-16T13:15:35.135Z,97727.44
2023-04-16T13:18:22.022Z,97724.72
2023-04-16T13:21:08.966Z,97715.81
2023-04-16T13:23:56.235Z,97713.09
2023-04-16T13:26:43.545Z,97720.91
2023-04-16T13:29:30.791Z,97715.66
2023-04-16T13:32:18.881Z,97716.19
2023-04-16T13:35:06.498Z,97713.97
2023-04-16T13:37:53.425Z,97715.03
2023-04-16T13:40:40.333Z,97723.22
2023-04-16T13:43:27.205Z,97716.66
2023-04-16T13:46:14.193Z,97710.31
2023-04-16T13:49:01.353Z,97719.03
2023-04-16T13:51:48.379Z,97705.72
2023-04-16T13:54:35.345Z,97718.69
2023-04-16T13:57:22.719Z,97707.03
2023-04-16T14:00:12.627Z,97709.25
2023-04-16T14:03:00.825Z,97708.19
2023-04-16T14:05:47.929Z,97708.19
2023-04-16T14:08:35.318Z,97714.38
2023-04-16T14:11:22.400Z,97718.38
2023-04-16T14:14:09.698Z,97711.44
2023-04-16T14:17:03.384Z,97717.44
2023-04-16T14:19:50.384Z,97701.97
2023-04-16T14:22:37.326Z,97712.53
2023-04-16T14:25:24.546Z,97702.19
2023-04-16T14:28:12.242Z,97711.78
2023-04-16T14:31:00.496Z,97704.88
2023-04-16T14:33:47.411Z,97713.06
2023-04-16T14:36:35.166Z,97719.22
2023-04-16T14:39:22.128Z,97715.19
2023-04-16T14:42:09.270Z,97713.72
2023-04-16T14:44:56.151Z,97717.72
2023-04-16T14:47:47.702Z,97719.88
2023-04-16T14:50:37.992Z,97711.22
2023-04-16T14:53:25.129Z,97712.34
2023-04-16T14:56:13.552Z,97714.59
2023-04-16T14:59:00.557Z,97717.00
2023-04-16T15:01:47.596Z,97710.25
2023-04-16T15:04:34.715Z,97717.38
2023-04-16T15:07:22.111Z,97710.66
2023-04-16T15:10:10.052Z,97706.34
2023-04-16T15:12:56.948Z,97705.28
2023-04-16T15:15:43.890Z,97709.06
2023-04-16T15:18:31.352Z,97714.66
2023-04-16T15:21:18.303Z,97712.25
2023-04-16T15:24:05.500Z,97714.31
2023-04-16T15:26:52.478Z,97713.72
2023-04-16T15:29:39.383Z,97716.69
2023-04-16T15:32:26.311Z,97720.00
2023-04-16T15:35:14.132Z,97725.25
2023-04-16T15:38:01.103Z,97717.09
2023-04-16T15:40:48.113Z,97720.41
2023-04-16T15:43:35.099Z,97715.34
2023-04-16T15:46:22.024Z,97721.50
2023-04-16T15:49:09.324Z,97715.88
2023-04-16T15:51:56.568Z,97717.66
2023-04-16T15:54:43.518Z,97720.75
2023-04-16T15:57:30.601Z,97719.25
2023-04-16T16:00:18.835Z,97716.88
2023-04-16T16:03:06.233Z,97721.09
2023-04-16T16:05:53.246Z,97717.97
2023-04-16T16:08:42.006Z,97723.06
2023-04-16T16:11:28.990Z,97727.41
2023-04-16T16:14:18.509Z,97729.44
2023-04-16T16:17:05.731Z,97730.34
2023-04-16T16:19:52.669Z,97725.81
2023-04-16T16:22:40.614Z,97736.16
2023-04-16T16:25:28.135Z,97738.00
2023-04-16T16:28:15.301Z,97735.50
2023-04-16T16:31:03.724Z,97735.16
2023-04-16T16:33:50.788Z,97730.97
2023-04-16T16:36:38.274Z,97735.91
2023-04-16T16:39:25.427Z,97739.53
2023-04-16T16:42:12.390Z,97739.38
2023-04-16T16:44:59.291Z,97738.66
2023-04-16T16:47:46.854Z,97739.19
2023-04-16T16:50:33.841Z,97733.06
2023-04-16T16:53:20.766Z,97733.78
2023-04-16T16:56:07.669Z,97733.94
2023-04-16T16:58:54.598Z,97741.41
2023-04-16T17:01:41.874Z,97737.25
2023-04-16T17:04:28.858Z,97743.59
2023-04-16T17:07:15.930Z,97748.34
2023-04-16T17:10:06.035Z,97751.97
2023-04-16T17:12:53.666Z,97757.25
2023-04-16T17:15:41.005Z,97764.16
2023-04-16T17:18:28.265Z,97760.50
2023-04-16T17:21:16.523Z,97772.72
2023-04-16T17:24:04.006Z,97783.81
2023-04-16T17:26:50.984Z,97776.53
2023-04-16T17:29:37.871Z,97785.28
2023-04-16T17:32:24.775Z,97784.53
2023-04-16T17:35:13.690Z,97779.44
2023-04-16T17:38:01.257Z,97783.09
2023-04-16T17:40:48.169Z,97792.00
2023-04-16T17:43:35.116Z,97783.78
2023-04-16T17:46:22.041Z,97781.22
2023-04-16T17:49:09.039Z,97781.31
2023-04-16T17:51:55.950Z,97779.63
2023-04-16T17:54:42.962Z,97775.94
2023-04-16T17:57:30.328Z,97773.56
2023-04-16T18:00:17.943Z,97777.91
2023-04-16T18:03:04.938Z,97788.19
2023-04-16T18:05:51.908Z,97787.81
2023-04-16T18:08:38.947Z,97794.53
2023-04-16T18:11:25.933Z,97798.63
2023-04-16T18:14:16.685Z,97796.19
2023-04-16T18:17:06.240Z,97796.00
2023-04-16T18:19:53.485Z,97803.22
2023-04-16T18:22:40.412Z,97799.09
2023-04-16T18:25:34.395Z,97804.75
2023-04-16T18:28:22.232Z,97808.53
2023-04-16T18:31:09.378Z,97803.97
2023-04-16T18:33:58.262Z,97806.63
2023-04-16T18:36:45.733Z,97811.00
2023-04-16T18:39:33.554Z,97813.34
2023-04-16T18:42:20.855Z,97813.53
2023-04-16T18:45:13.004Z,97817.00
2023-04-16T18:48:02.909Z,97818.59
2023-04-16T18:50:49.835Z,97816.59
2023-04-16T18:53:36.913Z,97819.50
2023-04-16T18:56:23.822Z,97824.56
2023-04-16T18:59:10.909Z,97824.56
2023-04-16T19:01:58.033Z,97829.28
2023-04-16T19:04:44.914Z,97824.16
2023-04-16T19:07:31.870Z,97828.16
2023-04-16T19:10:18.923Z,97830.09
2023-04-16T19:13:05.926Z,97843.69
2023-04-16T19:15:58.680Z,97845.06
2023-04-16T19:18:45.591Z,97841.31
2023-04-16T19:21:32.574Z,97838.16
2023-04-16T19:24:19.917Z,97834.25
2023-04-16T19:27:06.872Z,97846.94
2023-04-16T19:29:54.373Z,97843.28
2023-04-16T19:32:41.585Z,97841.16
2023-04-16T19:35:30.063Z,97841.16
2023-04-16T19:38:17.000Z,97843.34
2023-04-16T19:41:03.912Z,97847.97
2023-04-16T19:43:50.883Z,97845.00
2023-04-16T19:46:37.790Z,97846.53
2023-04-16T19:49:27.469Z,97845.88
2023-04-16T19:52:14.859Z,97849.91
2023-04-16T19:55:01.958Z,97847.13
2023-04-16T19:57:48.879Z,97855.16
2023-04-16T20:00:41.152Z,97845.25
2023-04-16T20:03:28.142Z,97847.31
2023-04-16T20:06:17.370Z,97847.97
2023-04-16T20:09:04.950Z,97851.50
2023-04-16T20:11:51.880Z,97850.25
2023-04-16T20:14:38.769Z,97850.25
2023-04-16T20:17:26.027Z,97856.66
2023-04-16T20:20:15.650Z,97858.00
2023-04-16T20:23:02.655Z,97848.91
2023-04-16T20:25:49.577Z,97854.63
2023-04-16T20:28:36.449Z,97868.22
2023-04-16T20:31:23.407Z,97857.84
2023-04-16T20:34:10.545Z,97845.34
2023-04-16T20:36:58.020Z,97838.91
2023-04-16T20:39:46.600Z,97849.91
2023-04-16T20:42:33.537Z,97849.06
2023-04-16T20:45:20.913Z,97850.72
2023-04-16T20:48:08.150Z,97850.72
2023-04-16T20:50:59.650Z,97849.97
2023-04-16T20:53:46.558Z,97847.78
2023-04-16T20:56:33.654Z,97853.44
2023-04-16T20:59:20.616Z,97854.59
2023-04-16T21:02:07.962Z,97850.09
2023-04-16T21:04:54.985Z,97851.88
2023-04-16T21:07:42.314Z,97855.34
2023-04-16T21:10:29.299Z,97845.66
2023-04-16T21:13:16.229Z,97850.75
2023-04-16T21:16:04.909Z,97850.69
2023-04-16T21:18:51.809Z,97859.56
2023-04-16T21:21:38.922Z,97854.47
2023-04-16T21:24:25.864Z,97853.00
2023-04-16T21:27:12.783Z,97862.41
2023-04-16T21:29:59.675Z,97861.03
2023-04-16T21:32:46.725Z,97862.06
2023-04-16T21:35:33.682Z,97863.75
2023-04-16T21:38:21.756Z,97867.19
2023-04-16T21:41:08.661Z,97856.84
2023-04-16T21:43:55.739Z,97859.16
2023-04-16T21:46:42.715Z,97859.16
2023-04-16T21:49:29.654Z,97867.72
2023-04-16T21:52:19.577Z,97864.59
2023-04-16T21:55:08.877Z,97857.03
2023-04-16T21:57:55.963Z,97861.75
2023-04-16T22:00:42.933Z,97860.94
2023-04-16T22:03:31.157Z,97862.59
2023-04-16T22:06:18.437Z,97870.22
2023-04-16T22:09:05.318Z,97862.00
2023-04-16T22:11:52.446Z,97864.31
2023-04-16T22:14:46.195Z,97860.22
2023-04-16T22:17:42.492Z,97862.72
2023-04-16T22:20:30.796Z,97852.94
2023-04-16T22:23:17.744Z,97855.84
2023-04-16T22:26:04.892Z,97847.91
2023-04-16T22:28:51.876Z,97847.13
2023-04-16T22:31:38.857Z,97854.78
2023-04-16T22:34:25.894Z,97852.19
2023-04-16T22:37:12.767Z,97851.91
2023-04-16T22:39:59.825Z,97846.34
2023-04-16T22:42:47.725Z,97847.72
2023-04-16T22:45:34.739Z,97841.38
2023-04-16T22:48:21.643Z,97848.97
2023-04-16T22:51:09.044Z,97846.25
2023-04-16T22:53:56.454Z,97841.47
2023-04-16T22:56:43.406Z,97844.00
2023-04-16T22:59:31.035Z,97841.72
2023-04-16T23:02:18.746Z,97837.53
2023-04-16T23:05:06.039Z,97843.88
2023-04-16T23:07:52.951Z,97833.13
2023-04-16T23:10:39.875Z,97831.88
2023-04-16T23:13:26.860Z,97833.13
2023-04-16T23:16:13.857Z,97835.09
2023-04-16T23:19:00.926Z,97828.22
2023-04-16T23:21:47.862Z,97832.69
2023-04-16T23:24:34.977Z,97831.97
2023-04-16T23:27:22.043Z,97836.03
2023-04-16T23:30:09.535Z,97840.00
2023-04-16T23:32:56.450Z,97833.25
2023-04-16T23:35:43.441Z,97835.22
2023-04-16T23:38:30.726Z,97836.91
2023-04-16T23:41:17.721Z,97840.00
2023-04-16T23:44:04.802Z,97828.53
2023-04-16T23:46:51.789Z,97842.31
2023-04-16T23:49:38.719Z,97833.13
2023-04-16T23:52:25.636Z,97839.69
2023-04-16T23:55:12.613Z,97832.91
2023-04-16T23:57:59.553Z,97833.53
